Time;durP1;ratioP1;P1;durP2;ratioP2;P2;SDS_P1;SDS_P2;PMS_P1;PMS_P2;Temp;Humidity;BMP_temperature;BMP_pressure;BME280_temperature;BME280_humidity;BME280_pressure;Samples;Min_cycle;Max_cycle;Signal;HPM_P1;HPM_P2
2022/05/09 00:00:38;;;;;;;32.58;5.43;;;;;;;9.93;100.00;102367.81;4995196;28;20549;-79
2022/05/09 00:03:04;;;;;;;28.83;5.55;;;;;;;9.93;100.00;102377.88;4982830;28;20389;-79
2022/05/09 00:05:31;;;;;;;30.45;6.22;;;;;;;9.84;100.00;102367.41;4965155;28;20560;-81
2022/05/09 00:07:56;;;;;;;31.52;6.10;;;;;;;9.84;100.00;102373.78;4979518;28;20034;-79
2022/05/09 00:10:24;;;;;;;37.35;7.00;;;;;;;9.88;100.00;102374.50;4998572;28;20130;-80
2022/05/09 00:12:52;;;;;;;28.08;6.13;;;;;;;9.82;100.00;102381.19;5007434;28;20537;-81
2022/05/09 00:15:18;;;;;;;26.35;6.50;;;;;;;9.72;100.00;102375.31;4981518;28;20061;-80
2022/05/09 00:17:47;;;;;;;41.42;8.45;;;;;;;9.78;100.00;102371.38;4981368;28;20048;-81
2022/05/09 00:20:14;;;;;;;40.47;6.38;;;;;;;9.70;100.00;102371.75;4993895;28;20033;-81
2022/05/09 00:22:52;;;;;;;46.00;8.55;;;;;;;9.69;100.00;102371.81;4996571;28;20101;-80
2022/05/09 00:25:21;;;;;;;39.10;7.70;;;;;;;9.69;100.00;102366.34;4980416;28;20029;-80
2022/05/09 00:27:46;;;;;;;35.20;7.18;;;;;;;9.59;100.00;102365.06;4995709;28;20066;-80
2022/05/09 00:30:14;;;;;;;55.55;9.45;;;;;;;9.52;100.00;102368.09;4969342;28;20034;-82
2022/05/09 00:32:40;;;;;;;38.15;6.38;;;;;;;9.56;100.00;102368.84;4974644;28;20027;-80
2022/05/09 00:35:08;;;;;;;33.22;8.48;;;;;;;9.61;100.00;102363.13;4949580;28;20036;-80
2022/05/09 00:37:33;;;;;;;36.45;7.63;;;;;;;9.47;100.00;102364.72;5000866;28;20038;-81
2022/05/09 00:39:59;;;;;;;30.35;6.47;;;;;;;9.46;100.00;102362.06;4997289;28;20041;-81
2022/05/09 00:42:25;;;;;;;36.72;7.78;;;;;;;9.43;100.00;102363.09;4994608;28;20076;-80
2022/05/09 00:44:51;;;;;;;40.10;7.72;;;;;;;9.40;100.00;102354.19;4998964;28;20039;-80
2022/05/09 00:47:18;;;;;;;32.03;7.10;;;;;;;9.41;100.00;102348.59;4964902;28;20039;-80
2022/05/09 00:49:54;;;;;;;34.92;7.88;;;;;;;9.43;100.00;102357.63;4999134;28;20116;-80
2022/05/09 00:52:29;;;;;;;30.08;7.07;;;;;;;9.20;100.00;102351.47;5002322;28;20034;-80
2022/05/09 00:55:36;;;;;;;41.33;9.05;;;;;;;9.28;100.00;102361.13;5016162;28;20383;-79
2022/05/09 00:58:07;;;;;;;39.30;8.63;;;;;;;9.24;100.00;102352.19;4959019;29;20085;-80
2022/05/09 01:00:33;;;;;;;28.45;8.27;;;;;;;9.30;100.00;102356.50;4986249;28;20049;-78
2022/05/09 01:03:04;;;;;;;41.78;8.30;;;;;;;9.20;100.00;102347.84;4998217;28;20121;-79
2022/05/09 01:05:30;;;;;;;29.30;8.13;;;;;;;9.11;100.00;102356.50;4965588;28;20022;-79
2022/05/09 01:07:57;;;;;;;39.63;9.43;;;;;;;9.20;100.00;102354.19;4994585;28;20046;-79
2022/05/09 01:10:37;;;;;;;39.08;8.85;;;;;;;9.17;100.00;102353.47;4973058;28;20482;-79
2022/05/09 01:13:07;;;;;;;38.22;8.80;;;;;;;9.18;100.00;102356.13;4985081;28;20030;-80
2022/05/09 01:15:34;;;;;;;31.67;7.88;;;;;;;9.11;100.00;102349.16;4999238;28;20101;-79
2022/05/09 01:18:03;;;;;;;29.88;7.30;;;;;;;9.09;100.00;102356.56;5015443;28;20041;-79
2022/05/09 01:20:29;;;;;;;38.20;7.72;;;;;;;8.99;100.00;102342.47;5011906;28;20062;-80
2022/05/09 01:22:57;;;;;;;30.75;7.80;;;;;;;9.09;100.00;102336.56;5012745;28;20045;-81
2022/05/09 01:25:23;;;;;;;47.65;7.68;;;;;;;9.01;100.00;102351.47;4989227;28;20196;-79
2022/05/09 01:27:49;;;;;;;28.98;7.45;;;;;;;9.06;100.00;102339.44;5000651;28;20062;-79
2022/05/09 01:30:44;;;;;;;44.67;8.15;;;;;;;9.01;100.00;102331.47;4980289;28;20085;-79
2022/05/09 01:33:18;;;;;;;34.35;8.30;;;;;;;8.90;100.00;102331.97;4998344;28;20541;-80
2022/05/09 01:35:57;;;;;;;41.90;9.02;;;;;;;8.86;100.00;102330.38;5000248;28;20038;-80
2022/05/09 01:38:48;;;;;;;49.70;8.85;;;;;;;8.85;100.00;102323.13;4999002;28;20040;-81
2022/05/09 01:41:14;;;;;;;39.55;8.80;;;;;;;8.81;100.00;102332.44;4994803;28;20077;-80
2022/05/09 01:43:42;;;;;;;36.08;9.20;;;;;;;8.84;100.00;102326.84;4998630;28;20594;-81
2022/05/09 01:46:12;;;;;;;63.15;10.45;;;;;;;8.76;100.00;102332.66;5011178;28;20069;-80
2022/05/09 01:51:24;;;;;;;51.92;9.57;;;;;;;8.69;100.00;102327.53;4988003;28;20074;-79
2022/05/09 01:53:52;;;;;;;48.20;10.15;;;;;;;8.67;100.00;102333.06;5000270;28;20046;-79
2022/05/09 01:56:26;;;;;;;43.45;10.05;;;;;;;8.54;100.00;102335.50;4996506;28;20057;-80
2022/05/09 01:58:52;;;;;;;37.90;8.98;;;;;;;8.56;100.00;102324.50;5001061;28;20030;-81
2022/05/09 02:01:20;;;;;;;45.47;10.20;;;;;;;8.52;100.00;102321.03;4999454;28;20065;-80
2022/05/09 02:03:46;;;;;;;36.92;9.15;;;;;;;8.28;100.00;102304.81;4992805;28;20089;-80
2022/05/09 02:06:12;;;;;;;66.32;10.40;;;;;;;8.43;100.00;102324.22;4997485;28;20061;-80
2022/05/09 02:08:39;;;;;;;34.50;9.55;;;;;;;8.46;100.00;102335.88;5000518;28;20038;-81
2022/05/09 02:11:05;;;;;;;35.60;9.15;;;;;;;8.45;100.00;102336.81;4982964;28;20039;-81
2022/05/09 02:13:31;;;;;;;53.90;9.82;;;;;;;8.36;100.00;102337.22;5000949;28;20038;-80
2022/05/09 02:15:57;;;;;;;56.25;11.02;;;;;;;8.52;100.00;102331.97;4995472;28;20114;-79
2022/05/09 02:18:22;;;;;;;43.30;9.80;;;;;;;8.41;100.00;102328.81;4967750;28;20446;-80
2022/05/09 02:20:48;;;;;;;58.35;11.48;;;;;;;8.41;100.00;102316.06;4982292;28;20054;-79
2022/05/09 02:23:14;;;;;;;44.70;10.70;;;;;;;8.37;100.00;102327.19;4981711;28;20046;-81
2022/05/09 02:25:42;;;;;;;43.90;11.05;;;;;;;8.24;100.00;102327.72;4994427;28;20030;-79
2022/05/09 02:28:09;;;;;;;48.35;10.82;;;;;;;8.31;100.00;102319.28;4998700;28;20042;-81
2022/05/09 02:30:38;;;;;;;55.75;10.82;;;;;;;8.17;100.00;102322.66;4982441;28;20061;-79
2022/05/09 02:33:04;;;;;;;41.40;10.20;;;;;;;8.25;100.00;102323.19;4973829;28;20042;-80
2022/05/09 02:35:30;;;;;;;40.97;9.48;;;;;;;8.20;100.00;102319.75;4989903;28;20039;-79
2022/05/09 02:37:56;;;;;;;44.05;10.70;;;;;;;8.29;100.00;102324.81;4974259;28;20030;-81
2022/05/09 02:40:24;;;;;;;46.13;10.65;;;;;;;8.15;100.00;102317.25;4996453;28;20133;-80
2022/05/09 02:42:50;;;;;;;43.67;10.68;;;;;;;8.07;100.00;102314.88;4978294;28;20402;-80
2022/05/09 02:45:15;;;;;;;42.30;9.95;;;;;;;8.09;100.00;102314.81;4954361;28;20038;-80
2022/05/09 02:47:42;;;;;;;39.45;9.25;;;;;;;7.85;100.00;102276.75;4981655;28;20053;-79
2022/05/09 02:50:09;;;;;;;58.85;11.20;;;;;;;8.01;100.00;102309.69;4981385;28;20034;-80
2022/05/09 02:52:37;;;;;;;46.63;10.85;;;;;;;8.02;100.00;102311.47;4982088;28;20065;-79
2022/05/09 02:55:05;;;;;;;45.90;10.25;;;;;;;8.02;100.00;102308.75;4973045;28;20038;-79
2022/05/09 02:57:31;;;;;;;46.28;9.80;;;;;;;8.00;100.00;102307.94;4996141;28;20061;-80
2022/05/09 02:59:57;;;;;;;33.47;11.02;;;;;;;8.01;100.00;102308.81;5011499;28;20042;-80
2022/05/09 03:02:24;;;;;;;42.20;9.68;;;;;;;8.03;100.00;102310.50;4999303;28;20046;-79
2022/05/09 03:04:50;;;;;;;33.13;8.82;;;;;;;7.92;100.00;102304.66;4991149;28;20031;-79
2022/05/09 03:07:17;;;;;;;56.45;12.07;;;;;;;7.93;100.00;102306.41;4974077;28;20038;-81
2022/05/09 03:09:45;;;;;;;34.38;9.40;;;;;;;7.95;100.00;102315.41;5012699;28;20034;-80
2022/05/09 03:12:13;;;;;;;41.58;10.20;;;;;;;7.82;100.00;102306.00;4964149;28;20039;-80
2022/05/09 03:14:39;;;;;;;42.65;10.55;;;;;;;7.80;100.00;102306.06;4963893;28;20042;-78
2022/05/09 03:17:07;;;;;;;42.60;10.45;;;;;;;7.87;100.00;102306.69;4996324;28;20149;-79
2022/05/09 03:19:33;;;;;;;39.00;9.30;;;;;;;7.82;100.00;102304.19;5002645;28;20033;-80
2022/05/09 03:21:59;;;;;;;33.08;8.68;;;;;;;7.87;100.00;102296.69;4989938;28;20054;-78
2022/05/09 03:24:25;;;;;;;35.60;8.80;;;;;;;7.74;100.00;102295.47;5000710;28;20030;-79
2022/05/09 03:26:51;;;;;;;32.00;8.82;;;;;;;7.87;100.00;102296.69;4981014;28;20038;-78
2022/05/09 03:29:18;;;;;;;31.10;8.85;;;;;;;7.68;100.00;102293.88;4996535;28;20041;-79
2022/05/09 03:31:46;;;;;;;34.67;9.63;;;;;;;7.79;100.00;102303.41;4986608;28;20073;-79
2022/05/09 03:34:13;;;;;;;38.00;9.82;;;;;;;7.75;100.00;102309.97;5004840;28;20035;-79
2022/05/09 03:36:40;;;;;;;32.97;8.13;;;;;;;7.81;100.00;102309.69;5003016;28;20093;-78
2022/05/09 03:39:06;;;;;;;36.30;9.73;;;;;;;7.73;100.00;102301.84;4999898;28;20069;-79
2022/05/09 03:41:31;;;;;;;35.05;9.18;;;;;;;7.83;100.00;102308.66;4982384;28;20035;-79
2022/05/09 03:43:57;;;;;;;33.75;8.98;;;;;;;7.68;100.00;102303.91;4975345;28;20023;-79
2022/05/09 03:46:23;;;;;;;41.10;8.57;;;;;;;7.61;100.00;102300.56;4980977;28;20389;-80
2022/05/09 03:48:48;;;;;;;28.08;7.70;;;;;;;7.65;100.00;102298.56;5017384;28;20110;-78
2022/05/09 03:51:14;;;;;;;23.15;7.00;;;;;;;7.68;100.00;102293.00;4984418;28;20458;-79
2022/05/09 03:53:39;;;;;;;24.70;8.35;;;;;;;7.69;100.00;102298.38;4980290;28;20503;-80
2022/05/09 03:56:07;;;;;;;21.58;7.85;;;;;;;7.66;100.00;102301.22;4983025;28;20030;-81
2022/05/09 03:58:33;;;;;;;31.42;8.23;;;;;;;7.73;100.00;102304.56;5004386;28;20038;-79
2022/05/09 04:00:58;;;;;;;34.97;8.02;;;;;;;7.64;100.00;102296.78;4975279;28;20042;-78
2022/05/09 04:03:24;;;;;;;28.38;7.65;;;;;;;7.74;100.00;102298.19;4972278;28;20035;-78
2022/05/09 04:05:50;;;;;;;25.48;7.35;;;;;;;7.66;100.00;102297.63;5001365;28;20436;-78
2022/05/09 04:08:20;;;;;;;26.30;7.30;;;;;;;7.66;100.00;102289.44;5008610;28;20038;-79
2022/05/09 04:10:47;;;;;;;27.42;7.50;;;;;;;7.65;100.00;102294.00;4988495;28;20041;-79
2022/05/09 04:13:14;;;;;;;24.98;7.70;;;;;;;7.69;100.00;102295.66;4988720;28;20035;-79
2022/05/09 04:18:31;;;;;;;22.90;7.13;;;;;;;7.63;100.00;102293.19;5006855;28;20042;-78
2022/05/09 04:20:57;;;;;;;24.15;6.68;;;;;;;7.65;100.00;102293.13;4991386;28;20058;-77
2022/05/09 04:23:22;;;;;;;25.42;6.95;;;;;;;7.48;100.00;102272.06;4986224;28;20056;-79
2022/05/09 04:25:49;;;;;;;25.88;7.25;;;;;;;7.55;100.00;102295.34;5007148;28;20098;-80
2022/05/09 04:28:20;;;;;;;22.60;6.80;;;;;;;7.59;100.00;102297.00;4971562;28;20549;-82
2022/05/09 04:30:45;;;;;;;34.47;7.97;;;;;;;7.61;100.00;102297.81;5007006;28;20496;-81
2022/05/09 04:33:12;;;;;;;16.13;6.35;;;;;;;7.62;100.00;102291.41;4991494;28;20031;-78
2022/05/09 04:35:39;;;;;;;23.55;6.45;;;;;;;7.67;100.00;102288.47;5014603;28;20041;-81
2022/05/09 04:38:06;;;;;;;27.77;7.32;;;;;;;7.79;100.00;102290.69;4998254;28;20105;-80
2022/05/09 04:40:35;;;;;;;17.55;6.70;;;;;;;7.83;100.00;102292.31;5015756;28;20022;-80
2022/05/09 04:43:01;;;;;;;28.40;8.20;;;;;;;7.88;100.00;102278.47;4986493;28;20054;-80
2022/05/09 04:45:29;;;;;;;19.63;7.10;;;;;;;7.82;100.00;102290.56;4989957;28;20038;-77
2022/05/09 04:47:55;;;;;;;23.88;7.57;;;;;;;7.84;100.00;102285.03;4989914;28;20288;-79
2022/05/09 04:50:24;;;;;;;24.63;7.63;;;;;;;7.87;100.00;102293.03;4983808;28;20035;-80
2022/05/09 04:52:50;;;;;;;25.20;7.10;;;;;;;7.93;100.00;102292.78;5009210;28;20035;-79
2022/05/09 04:55:16;;;;;;;17.20;7.15;;;;;;;7.97;100.00;102294.44;4954014;28;20057;-79
2022/05/09 04:57:43;;;;;;;19.50;7.25;;;;;;;7.97;100.00;102298.97;5008467;28;20042;-79
2022/05/09 05:00:12;;;;;;;23.75;6.68;;;;;;;8.04;100.00;102282.28;4986029;28;20061;-79
2022/05/09 05:02:38;;;;;;;27.30;7.72;;;;;;;8.00;100.00;102282.47;4998985;28;20069;-78
2022/05/09 05:05:05;;;;;;;21.70;7.35;;;;;;;8.16;100.00;102291.72;4973021;28;20034;-78
2022/05/09 05:07:31;;;;;;;17.70;7.80;;;;;;;8.19;100.00;102277.94;5001588;28;20043;-79
2022/05/09 05:09:57;;;;;;;22.85;6.55;;;;;;;8.17;100.00;102295.38;4967585;28;20037;-79
2022/05/09 05:12:23;;;;;;;25.48;6.68;;;;;;;8.31;100.00;102292.00;5026808;28;20057;-79
2022/05/09 05:14:48;;;;;;;14.93;7.22;;;;;;;8.35;100.00;102274.53;5014021;28;20101;-79
2022/05/09 05:17:14;;;;;;;28.45;7.68;;;;;;;8.45;100.00;102286.81;5011307;28;20486;-78
2022/05/09 05:19:44;;;;;;;17.02;7.25;;;;;;;8.62;100.00;102278.72;4979475;28;20073;-78
2022/05/09 05:22:15;;;;;;;19.10;7.35;;;;;;;8.75;100.00;102278.97;5017429;28;20054;-79
2022/05/09 05:24:43;;;;;;;21.25;6.43;;;;;;;9.07;100.00;102273.78;5009444;28;20084;-79
2022/05/09 05:27:10;;;;;;;20.35;7.20;;;;;;;9.30;100.00;102269.91;5008896;28;20034;-79
2022/05/09 05:29:36;;;;;;;20.00;6.97;;;;;;;9.23;100.00;102276.66;4996351;28;20041;-79
2022/05/09 05:32:14;;;;;;;20.05;6.78;;;;;;;9.37;100.00;102270.47;4980757;28;20030;-80
2022/05/09 05:34:39;;;;;;;16.88;6.07;;;;;;;9.60;100.00;102271.13;5009489;28;20027;-80
2022/05/09 05:37:05;;;;;;;16.17;7.00;;;;;;;9.82;100.00;102273.59;4997182;28;20110;-79
2022/05/09 05:39:34;;;;;;;15.82;6.35;;;;;;;10.24;100.00;102283.22;4999623;28;20021;-81
2022/05/09 05:41:59;;;;;;;16.30;5.88;;;;;;;10.38;100.00;102277.00;4983308;28;20130;-80
2022/05/09 05:44:26;;;;;;;27.60;7.40;;;;;;;10.53;100.00;102278.91;4981245;28;20116;-82
2022/05/09 05:46:52;;;;;;;16.75;5.55;;;;;;;10.91;100.00;102283.16;5030521;28;20423;-82
2022/05/09 05:49:17;;;;;;;25.92;5.68;;;;;;;11.27;100.00;102292.97;4995208;28;20091;-81
2022/05/09 05:51:43;;;;;;;17.15;6.30;;;;;;;11.26;100.00;102291.19;4976837;28;20153;-80
2022/05/09 05:54:08;;;;;;;18.58;6.57;;;;;;;11.86;100.00;102295.81;4992611;28;20034;-80
2022/05/09 05:56:37;;;;;;;15.05;5.70;;;;;;;11.87;100.00;102282.00;4997503;28;20074;-81
2022/05/09 05:59:04;;;;;;;12.10;5.90;;;;;;;12.07;100.00;102296.41;5027130;28;20038;-81
2022/05/09 06:01:30;;;;;;;19.50;6.82;;;;;;;12.40;100.00;102300.75;4986573;28;20045;-81
2022/05/09 06:03:55;;;;;;;21.40;6.57;;;;;;;13.10;99.27;102299.84;4994607;28;20038;-82
2022/05/09 06:06:25;;;;;;;22.35;6.60;;;;;;;12.68;98.83;102295.22;5004270;28;20054;-81
2022/05/09 06:08:50;;;;;;;18.50;5.65;;;;;;;13.15;96.16;102293.09;4993834;28;20048;-80
2022/05/09 06:11:16;;;;;;;17.42;5.43;;;;;;;12.92;96.71;102297.38;4986064;28;20070;-80
2022/05/09 06:13:44;;;;;;;14.45;5.53;;;;;;;13.01;97.00;102293.13;5000599;28;20030;-80
2022/05/09 06:16:10;;;;;;;25.55;6.53;;;;;;;13.20;95.48;102284.53;4971294;28;20401;-82
2022/05/09 06:18:36;;;;;;;22.48;6.97;;;;;;;13.57;95.40;102282.91;4985523;28;20030;-80
2022/05/09 06:21:03;;;;;;;14.70;5.88;;;;;;;13.91;91.61;102282.44;4999750;28;20035;-81
2022/05/09 06:23:29;;;;;;;22.50;5.60;;;;;;;15.07;84.03;102291.53;5002168;28;20058;-82
2022/05/09 06:25:56;;;;;;;17.73;5.28;;;;;;;14.69;86.27;102289.72;4976065;28;20027;-80
2022/05/09 06:28:23;;;;;;;32.45;6.25;;;;;;;15.04;81.47;102284.34;4971552;28;20030;-80
2022/05/09 06:30:50;;;;;;;16.13;5.53;;;;;;;15.24;80.73;102281.94;4999019;28;20053;-80
2022/05/09 06:33:23;;;;;;;18.00;5.72;;;;;;;15.46;79.44;102292.22;5015930;28;20045;-79
2022/05/09 06:35:50;;;;;;;23.25;5.68;;;;;;;15.43;79.84;102292.47;4983813;28;20137;-79
2022/05/09 06:38:17;;;;;;;17.08;5.60;;;;;;;16.16;76.43;102288.59;4994605;28;20034;-80
2022/05/09 06:40:43;;;;;;;15.13;5.43;;;;;;;16.01;78.96;102287.06;4994179;28;20038;-79
2022/05/09 06:43:09;;;;;;;16.98;5.75;;;;;;;15.49;79.82;102278.19;5016329;28;20030;-79
2022/05/09 06:45:35;;;;;;;17.90;5.43;;;;;;;16.57;74.63;102280.72;4999112;28;20413;-78
2022/05/09 06:48:01;;;;;;;21.45;5.65;;;;;;;16.79;74.62;102276.19;4982764;28;20062;-77
2022/05/09 06:50:30;;;;;;;20.27;5.93;;;;;;;16.23;78.35;102274.28;4994558;28;20053;-80
2022/05/09 06:52:57;;;;;;;17.40;6.40;;;;;;;16.28;75.56;102270.16;5000745;28;20034;-79
2022/05/09 06:55:22;;;;;;;16.23;5.72;;;;;;;16.35;76.75;102265.88;4980398;28;20043;-81
2022/05/09 06:57:49;;;;;;;19.63;6.22;;;;;;;17.09;71.52;102272.78;4984780;28;20034;-80
2022/05/09 07:00:21;;;;;;;19.02;6.63;;;;;;;16.88;73.14;102272.69;5017261;28;20208;-80
2022/05/09 07:02:47;;;;;;;18.60;6.10;;;;;;;16.85;73.26;102268.28;4978814;28;20031;-80
2022/05/09 07:05:16;;;;;;;27.92;6.57;;;;;;;17.27;71.31;102268.44;4982799;28;20023;-80
2022/05/09 07:07:43;;;;;;;26.02;6.35;;;;;;;16.82;70.85;102268.53;4981579;28;20030;-80
2022/05/09 07:10:10;;;;;;;23.75;6.22;;;;;;;17.70;70.73;102274.09;4996612;28;20397;-80
2022/05/09 07:13:04;;;;;;;19.92;6.88;;;;;;;17.29;70.75;102267.44;4984941;28;20062;-81
2022/05/09 07:15:32;;;;;;;30.20;7.50;;;;;;;16.96;72.39;102281.22;5014517;28;20046;-79
2022/05/09 07:17:58;;;;;;;26.45;6.40;;;;;;;17.99;68.21;102268.78;5020380;28;20030;-78
2022/05/09 07:20:28;;;;;;;24.15;7.68;;;;;;;17.71;70.12;102273.94;5017462;28;20132;-80
2022/05/09 07:22:55;;;;;;;30.63;7.85;;;;;;;16.73;73.40;102270.16;5020533;28;20063;-81
2022/05/09 07:25:23;;;;;;;30.00;7.55;;;;;;;17.93;71.13;102266.56;5007809;28;20027;-81
2022/05/09 07:27:48;;;;;;;20.65;7.40;;;;;;;17.91;69.93;102257.50;4996412;28;20026;-80
2022/05/09 07:30:18;;;;;;;28.90;6.95;;;;;;;18.20;69.83;102260.47;5004845;28;20042;-79
2022/05/09 07:32:45;;;;;;;37.25;7.05;;;;;;;18.45;67.85;102250.81;4967067;28;20038;-78
2022/05/09 07:35:14;;;;;;;24.15;6.90;;;;;;;20.20;61.07;102263.16;4960265;28;20027;-80
2022/05/09 07:37:41;;;;;;;33.30;7.72;;;;;;;19.49;62.58;102257.97;4966314;28;20077;-78
2022/05/09 07:40:10;;;;;;;17.35;7.05;;;;;;;18.90;63.47;102269.84;5012170;28;20061;-80
2022/05/09 07:42:37;;;;;;;21.08;6.88;;;;;;;19.04;64.24;102265.81;5025281;28;20141;-79
2022/05/09 07:45:04;;;;;;;17.25;6.32;;;;;;;18.68;65.54;102267.28;5010853;28;20034;-80
2022/05/09 07:47:29;;;;;;;27.20;6.68;;;;;;;18.59;66.80;102268.09;4994935;28;20126;-80
2022/05/09 07:49:56;;;;;;;20.60;7.30;;;;;;;18.39;66.53;102256.91;4991882;28;20027;-79
2022/05/09 07:52:22;;;;;;;18.58;6.75;;;;;;;18.87;65.24;102259.03;4974160;28;20053;-79
2022/05/09 07:54:48;;;;;;;22.75;6.78;;;;;;;18.76;66.07;102256.34;5007074;28;20462;-80
2022/05/09 07:57:14;;;;;;;23.85;6.38;;;;;;;19.09;64.04;102260.69;4977992;28;20177;-81
2022/05/09 07:59:40;;;;;;;17.05;6.10;;;;;;;19.80;62.73;102250.38;5010673;28;20027;-80
2022/05/09 08:02:06;;;;;;;21.55;6.35;;;;;;;19.21;63.90;102255.88;4964087;28;20057;-78
2022/05/09 08:04:32;;;;;;;16.10;6.55;;;;;;;20.17;61.57;102258.81;4988531;28;20054;-79
2022/05/09 08:06:58;;;;;;;21.52;6.82;;;;;;;20.41;62.51;102259.31;5004267;28;20054;-79
2022/05/09 08:09:24;;;;;;;18.98;6.78;;;;;;;19.98;64.15;102256.94;4996787;28;20104;-80
2022/05/09 08:11:50;;;;;;;21.70;6.60;;;;;;;21.45;57.39;102257.13;5002429;28;20084;-79
2022/05/09 08:14:16;;;;;;;14.93;5.93;;;;;;;21.04;56.72;102253.06;4973187;28;20105;-79
2022/05/09 08:16:43;;;;;;;20.30;6.50;;;;;;;19.98;60.80;102256.06;5000284;28;20151;-78
2022/05/09 08:19:14;;;;;;;25.90;6.70;;;;;;;20.43;60.27;102254.47;5011112;28;20038;-78
2022/05/09 08:21:40;;;;;;;19.88;5.28;;;;;;;20.14;57.87;102261.00;4987389;28;20394;-78
2022/05/09 08:24:11;;;;;;;15.70;4.90;;;;;;;19.87;60.02;102262.66;4986078;28;20045;-79
2022/05/09 08:26:36;;;;;;;24.23;5.88;;;;;;;22.11;53.55;102256.88;5003452;28;20082;-79
2022/05/09 08:29:04;;;;;;;21.60;5.88;;;;;;;21.47;54.93;102256.97;4955457;28;20042;-78
2022/05/09 08:31:31;;;;;;;14.95;5.32;;;;;;;20.58;57.12;102255.75;5006130;28;20122;-79
2022/05/09 08:33:57;;;;;;;16.52;5.82;;;;;;;20.85;57.04;102254.03;5006040;28;20077;-79
2022/05/09 08:39:08;;;;;;;18.20;5.65;;;;;;;20.86;57.17;102258.56;4989247;28;20061;-79
2022/05/09 08:41:54;;;;;;;22.20;6.25;;;;;;;20.59;57.84;102257.47;4985387;28;20062;-79
2022/05/09 08:44:26;;;;;;;24.67;6.63;;;;;;;20.71;58.24;102256.28;4981362;28;20435;-78
2022/05/09 08:47:14;;;;;;;17.70;6.53;;;;;;;20.84;58.28;102255.03;4999006;28;20096;-77
2022/05/09 08:49:57;;;;;;;19.52;7.07;;;;;;;21.26;56.45;102249.78;5000519;28;20038;-79
2022/05/09 08:52:31;;;;;;;14.52;6.95;;;;;;;21.48;54.59;102254.06;4980333;28;20027;-78
2022/05/09 08:54:56;;;;;;;22.08;6.63;;;;;;;22.24;52.41;102262.03;4993049;28;20031;-79
2022/05/09 08:57:28;;;;;;;20.42;6.80;;;;;;;21.78;54.66;102242.66;4964424;28;20097;-78
2022/05/09 09:00:02;;;;;;;17.30;6.78;;;;;;;21.14;56.35;102247.41;4965654;28;20049;-80
2022/05/09 09:02:36;;;;;;;21.67;6.63;;;;;;;21.82;55.68;102250.56;4998071;28;20060;-79
2022/05/09 09:05:03;;;;;;;23.90;7.68;;;;;;;21.93;54.15;102245.75;5015630;28;20104;-79
2022/05/09 09:07:48;;;;;;;18.58;7.15;;;;;;;22.44;52.26;102245.94;5000256;28;20034;-78
2022/05/09 09:10:19;;;;;;;20.70;7.03;;;;;;;21.92;57.35;102243.97;4997119;28;20026;-80
2022/05/09 09:13:08;;;;;;;21.30;8.20;;;;;;;22.03;54.24;102239.00;4999776;28;20038;-79
2022/05/09 09:15:48;;;;;;;21.50;7.88;;;;;;;22.80;51.63;102231.81;5013200;28;20117;-79
2022/05/09 09:18:44;;;;;;;17.25;8.23;;;;;;;21.96;54.55;102232.34;4962909;28;20034;-78
2022/05/09 09:21:35;;;;;;;28.70;8.75;;;;;;;22.26;53.75;102227.31;4988614;28;20049;-77
2022/05/09 09:24:27;;;;;;;23.80;8.88;;;;;;;21.75;56.15;102232.69;5015315;28;20031;-78
2022/05/09 09:27:35;;;;;;;21.20;8.65;;;;;;;22.05;53.59;102233.28;4993714;28;20034;-77
2022/05/09 09:30:10;;;;;;;23.05;8.38;;;;;;;21.80;55.71;102226.66;4997560;28;20034;-78
2022/05/09 09:32:39;;;;;;;24.13;8.93;;;;;;;22.37;53.52;102231.78;4981512;28;20039;-78
2022/05/09 09:35:20;;;;;;;22.55;8.35;;;;;;;22.12;54.69;102225.13;4982813;28;20058;-77
2022/05/09 09:37:52;;;;;;;27.83;9.07;;;;;;;22.23;53.41;102223.97;5000275;28;20089;-80
2022/05/09 09:40:18;;;;;;;30.27;8.13;;;;;;;22.21;55.78;102222.22;4999376;28;20065;-78
2022/05/09 09:42:44;;;;;;;23.45;8.43;;;;;;;22.71;51.74;102216.91;4999361;28;20045;-79
2022/05/09 09:45:33;;;;;;;24.02;7.85;;;;;;;22.77;51.63;102219.03;4998975;28;20027;-77
2022/05/09 09:48:14;;;;;;;20.80;8.40;;;;;;;22.45;56.28;102217.88;5011222;28;20049;-79
2022/05/09 09:50:51;;;;;;;13.57;7.22;;;;;;;22.42;55.39;102208.97;4999272;28;20541;-78
2022/05/09 09:53:34;;;;;;;20.48;8.45;;;;;;;22.54;54.69;102218.78;5014387;28;20513;-78
2022/05/09 09:56:05;;;;;;;;;;;;;;;23.46;52.64;102213.28;5000110;28;20039;-78
2022/05/09 09:58:31;;;;;;;23.08;7.50;;;;;;;23.05;51.06;102210.41;4998791;28;19917;-79
2022/05/09 10:01:30;;;;;;;24.30;7.85;;;;;;;23.24;51.21;102212.91;4993062;28;20042;-77
2022/05/09 10:04:09;;;;;;;25.05;8.20;;;;;;;23.29;50.75;102206.81;4964364;28;20045;-78
2022/05/09 10:07:04;;;;;;;21.75;7.45;;;;;;;23.97;49.11;102202.84;4985947;28;20038;-78
2022/05/09 10:10:01;;;;;;;22.35;8.10;;;;;;;22.70;52.07;102196.50;4981903;28;20092;-79
2022/05/09 10:12:29;;;;;;;20.45;6.53;;;;;;;22.82;54.37;102197.06;4971606;28;20125;-80
2022/05/09 10:14:56;;;;;;;23.65;7.35;;;;;;;22.70;53.96;102201.22;4999005;28;20026;-78
2022/05/09 10:17:21;;;;;;;28.60;7.95;;;;;;;22.81;53.26;102189.75;5000629;28;20041;-78
2022/05/09 10:19:48;;;;;;;23.75;8.63;;;;;;;23.03;52.00;102190.16;4984725;28;20030;-78
2022/05/09 10:25:09;;;;;;;24.40;8.50;;;;;;;23.59;51.70;102182.88;4999193;28;20042;-78
2022/05/09 10:27:36;;;;;;;25.33;9.18;;;;;;;23.90;51.98;102181.34;4972454;28;20030;-78
2022/05/09 10:30:30;;;;;;;28.00;8.30;;;;;;;24.29;49.66;102180.53;4986743;28;20030;-79
2022/05/09 10:33:05;;;;;;;19.15;7.40;;;;;;;25.52;43.98;102167.81;4999850;28;20034;-79
2022/05/09 10:36:03;;;;;;;20.98;6.63;;;;;;;24.24;48.13;102178.28;4999837;28;20426;-78
2022/05/09 10:38:40;;;;;;;20.52;8.20;;;;;;;23.78;48.16;102166.81;5015773;28;20513;-79
2022/05/09 10:41:27;;;;;;;16.73;7.78;;;;;;;23.46;51.23;102154.59;5016027;28;20031;-78
2022/05/09 10:44:27;;;;;;;22.60;7.75;;;;;;;23.85;49.52;102163.16;4997284;28;20085;-79
2022/05/09 10:46:59;;;;;;;24.65;7.82;;;;;;;23.94;49.96;102158.44;4975906;28;20181;-79
2022/05/09 10:49:43;;;;;;;21.95;8.20;;;;;;;23.81;50.19;102152.47;4981957;28;20026;-79
2022/05/09 10:52:11;;;;;;;27.15;8.43;;;;;;;23.80;51.10;102151.59;4999609;28;20125;-79
2022/05/09 10:54:53;;;;;;;24.35;8.27;;;;;;;23.71;48.59;102143.38;4998738;28;20113;-79
2022/05/09 10:57:25;;;;;;;18.73;8.07;;;;;;;24.06;48.75;102144.06;4997866;28;20045;-79
2022/05/09 10:59:53;;;;;;;25.13;8.52;;;;;;;23.79;50.38;102137.78;4998686;28;20026;-79
2022/05/09 11:02:27;;;;;;;34.92;8.77;;;;;;;23.71;49.35;102149.88;4998067;28;20038;-79
2022/05/09 11:04:55;;;;;;;24.00;8.98;;;;;;;23.80;49.46;102137.59;4982245;28;20031;-78
2022/05/09 11:07:43;;;;;;;24.77;9.05;;;;;;;24.37;47.04;102149.72;4971866;28;20047;-79
2022/05/09 11:10:15;;;;;;;18.30;8.88;;;;;;;23.74;49.98;102143.03;4994708;28;20053;-78
2022/05/09 11:12:56;;;;;;;20.58;9.80;;;;;;;23.25;49.79;102138.31;4983331;28;20041;-78
2022/05/09 11:15:32;;;;;;;26.77;10.40;;;;;;;23.76;50.60;102127.84;4981006;28;20037;-79
2022/05/09 11:18:09;;;;;;;23.42;9.18;;;;;;;23.68;51.38;102125.91;4998726;28;20047;-78
2022/05/09 11:20:46;;;;;;;25.88;9.57;;;;;;;23.78;49.28;102130.44;4997471;28;20110;-79
2022/05/09 11:23:43;;;;;;;28.92;10.10;;;;;;;23.57;50.05;102128.22;4977138;28;20042;-78
2022/05/09 11:26:51;;;;;;;27.35;9.88;;;;;;;23.77;51.03;102126.75;4970585;28;20042;-79
2022/05/09 11:29:35;;;;;;;26.35;10.23;;;;;;;23.29;51.98;102115.44;4941259;28;20046;-78
2022/05/09 11:32:00;;;;;;;26.83;11.38;;;;;;;23.30;51.28;102114.41;4976298;28;20031;-78
2022/05/09 11:35:10;;;;;;;29.27;12.07;;;;;;;24.12;50.03;102127.41;4978879;28;20026;-79
2022/05/09 11:38:03;;;;;;;26.65;11.63;;;;;;;23.49;50.23;102117.91;4967118;28;20042;-80
2022/05/09 11:40:55;;;;;;;;;;;;;;;23.34;50.57;102108.47;4999390;28;20034;-80
2022/05/09 11:44:16;;;;;;;33.65;11.80;;;;;;;23.34;51.58;102097.31;4993133;28;19914;-79